createdAt,value
2019-06-26T00:01:42.446Z,58.60
2019-06-26T00:04:16.761Z,58.60
2019-06-26T00:06:44.949Z,58.80
2019-06-26T00:09:14.163Z,59.00
2019-06-26T00:11:43.402Z,59.50
2019-06-26T00:14:12.617Z,59.70
2019-06-26T00:16:42.010Z,59.70
2019-06-26T00:19:11.245Z,59.90
2019-06-26T00:21:40.550Z,60.10
2019-06-26T00:24:09.845Z,60.10
2019-06-26T00:26:39.185Z,60.20
2019-06-26T00:29:08.451Z,60.50
2019-06-26T00:31:37.652Z,60.60
2019-06-26T00:34:07.029Z,60.90
2019-06-26T00:36:36.335Z,61.20
2019-06-26T00:39:07.087Z,61.70
2019-06-26T00:41:36.366Z,61.90
2019-06-26T00:44:05.706Z,62.20
2019-06-26T00:46:34.968Z,62.40
2019-06-26T00:49:04.282Z,62.50
2019-06-26T00:51:33.638Z,62.80
2019-06-26T00:54:02.939Z,63.20
2019-06-26T00:56:32.215Z,63.40
2019-06-26T00:59:01.485Z,63.70
2019-06-26T01:01:30.674Z,63.60
2019-06-26T01:04:03.985Z,63.80
2019-06-26T01:06:52.324Z,63.90
2019-06-26T01:09:21.621Z,64.20
2019-06-26T01:11:50.829Z,64.40
2019-06-26T01:14:20.241Z,64.40
2019-06-26T01:16:49.448Z,64.40
2019-06-26T01:19:18.721Z,64.30
2019-06-26T01:21:48.789Z,64.40
2019-06-26T01:24:18.912Z,64.50
2019-06-26T01:26:49.828Z,64.60
2019-06-26T01:29:19.139Z,64.80
2019-06-26T01:31:48.443Z,64.90
2019-06-26T01:34:17.811Z,65.20
2019-06-26T01:36:47.034Z,65.50
2019-06-26T01:39:16.494Z,65.80
2019-06-26T01:41:45.764Z,66.20
2019-06-26T01:44:15.743Z,66.40
2019-06-26T01:46:45.244Z,66.50
2019-06-26T01:49:14.522Z,66.70
2019-06-26T01:51:43.826Z,66.80
2019-06-26T01:54:13.011Z,66.80
2019-06-26T01:56:42.281Z,66.90
2019-06-26T01:59:11.632Z,67.00
2019-06-26T02:01:40.921Z,67.30
2019-06-26T02:04:10.403Z,67.30
2019-06-26T02:06:39.685Z,67.50
2019-06-26T02:09:08.943Z,67.60
2019-06-26T02:11:38.151Z,67.70
2019-06-26T02:14:07.534Z,67.80
2019-06-26T02:16:36.827Z,67.90
2019-06-26T02:19:07.413Z,68.10
2019-06-26T02:21:37.193Z,68.40
2019-06-26T02:24:06.457Z,68.40
2019-06-26T02:26:35.799Z,68.60
2019-06-26T02:29:05.032Z,68.70
2019-06-26T02:31:34.275Z,68.70
2019-06-26T02:34:03.581Z,68.70
2019-06-26T02:36:33.281Z,68.80
2019-06-26T02:39:02.854Z,68.80
2019-06-26T02:41:32.129Z,69.00
2019-06-26T02:44:04.687Z,68.80
2019-06-26T02:46:33.919Z,68.90
2019-06-26T02:49:03.228Z,69.00
2019-06-26T02:51:32.471Z,69.00
2019-06-26T02:54:02.484Z,69.00
2019-06-26T02:56:31.770Z,69.10
2019-06-26T02:59:01.025Z,69.30
2019-06-26T03:01:30.376Z,69.50
2019-06-26T03:03:59.691Z,69.80
2019-06-26T03:06:29.030Z,69.90
2019-06-26T03:08:58.337Z,70.10
2019-06-26T03:11:27.644Z,70.10
2019-06-26T03:13:56.914Z,70.20
2019-06-26T03:16:26.158Z,70.40
2019-06-26T03:18:55.510Z,70.50
2019-06-26T03:21:25.169Z,70.70
2019-06-26T03:23:54.534Z,70.80
2019-06-26T03:26:23.842Z,71.00
2019-06-26T03:28:53.137Z,71.10
2019-06-26T03:31:22.472Z,71.30
2019-06-26T03:34:18.431Z,71.50
2019-06-26T03:36:50.611Z,71.50
2019-06-26T03:39:20.035Z,71.70
2019-06-26T03:41:49.310Z,71.70
2019-06-26T03:44:18.662Z,71.60
2019-06-26T03:46:48.047Z,71.70
2019-06-26T03:49:17.402Z,71.70
2019-06-26T03:51:46.766Z,71.70
2019-06-26T03:54:16.448Z,71.70
2019-06-26T03:56:45.781Z,71.70
2019-06-26T03:59:15.170Z,71.70
2019-06-26T04:01:44.496Z,71.60
2019-06-26T04:04:13.784Z,71.40
2019-06-26T04:06:43.121Z,71.40
2019-06-26T04:09:12.546Z,71.40
2019-06-26T04:11:42.271Z,71.30
2019-06-26T04:14:12.211Z,71.40
2019-06-26T04:16:44.407Z,71.40
2019-06-26T04:19:13.776Z,71.50
2019-06-26T04:21:43.092Z,71.50
2019-06-26T04:24:12.449Z,71.50
2019-06-26T04:26:41.794Z,71.70
2019-06-26T04:29:11.179Z,71.70
2019-06-26T04:31:40.567Z,71.90
2019-06-26T04:34:09.821Z,71.90
2019-06-26T04:36:39.375Z,72.00
2019-06-26T04:39:08.809Z,72.10
2019-06-26T04:41:38.202Z,72.30
2019-06-26T04:44:07.520Z,72.50
2019-06-26T04:46:36.901Z,72.70
2019-06-26T04:49:06.442Z,72.80
2019-06-26T04:51:35.852Z,72.90
2019-06-26T04:54:05.391Z,72.80
2019-06-26T04:56:34.805Z,72.90
2019-06-26T04:59:04.033Z,73.00
2019-06-26T05:01:33.240Z,73.00
2019-06-26T05:04:02.497Z,72.90
2019-06-26T05:06:31.766Z,72.80
2019-06-26T05:09:01.026Z,72.90
2019-06-26T05:11:30.340Z,72.70
2019-06-26T05:13:59.570Z,72.70
2019-06-26T05:16:28.942Z,72.60
2019-06-26T05:18:58.236Z,72.60
2019-06-26T05:21:27.466Z,72.80
2019-06-26T05:23:56.703Z,72.80
2019-06-26T05:26:25.941Z,72.80
2019-06-26T05:28:55.465Z,72.80
2019-06-26T05:31:24.777Z,72.70
2019-06-26T05:33:54.141Z,72.70
2019-06-26T05:36:23.600Z,72.70
2019-06-26T05:38:52.801Z,72.80
2019-06-26T05:41:22.852Z,72.70
2019-06-26T05:43:52.245Z,72.70
2019-06-26T05:46:31.171Z,72.70
2019-06-26T05:48:53.613Z,73.50
2019-06-26T05:51:23.341Z,72.90
2019-06-26T05:53:52.646Z,73.00
2019-06-26T05:56:21.912Z,73.20
2019-06-26T05:58:51.113Z,73.40
2019-06-26T06:01:21.276Z,73.50
2019-06-26T06:03:50.528Z,73.50
2019-06-26T06:06:19.724Z,73.50
2019-06-26T06:08:49.008Z,73.60
2019-06-26T06:11:18.331Z,73.50
2019-06-26T06:13:47.594Z,73.50
2019-06-26T06:16:16.899Z,73.50
2019-06-26T06:18:46.304Z,73.50
2019-06-26T06:21:15.505Z,73.60
2019-06-26T06:23:44.816Z,73.50
2019-06-26T06:26:14.103Z,73.40
2019-06-26T06:28:43.457Z,73.30
2019-06-26T06:31:15.378Z,73.10
2019-06-26T06:33:44.651Z,72.90
2019-06-26T06:36:13.951Z,72.80
2019-06-26T06:38:45.967Z,72.70
2019-06-26T06:41:15.224Z,72.60
2019-06-26T06:43:44.577Z,72.50
2019-06-26T06:46:13.782Z,72.40
2019-06-26T06:48:46.184Z,72.30
2019-06-26T06:51:15.380Z,72.30
2019-06-26T06:53:44.860Z,72.30
2019-06-26T06:56:14.515Z,72.10
2019-06-26T06:58:43.788Z,72.10
2019-06-26T07:01:15.084Z,71.90
2019-06-26T07:03:44.328Z,71.80
2019-06-26T07:06:13.644Z,71.70
2019-06-26T07:08:42.886Z,71.50
2019-06-26T07:11:12.169Z,71.20
2019-06-26T07:13:41.425Z,71.10
2019-06-26T07:16:10.654Z,70.90
2019-06-26T07:18:40.178Z,70.80
2019-06-26T07:21:09.488Z,70.60
2019-06-26T07:23:39.157Z,70.30
2019-06-26T07:26:08.486Z,69.90
2019-06-26T07:28:37.734Z,69.80
2019-06-26T07:31:06.963Z,69.80
2019-06-26T07:33:36.194Z,69.80
2019-06-26T07:36:05.424Z,69.90
2019-06-26T07:38:34.692Z,70.00
2019-06-26T07:41:03.884Z,70.10
2019-06-26T07:43:33.115Z,70.20
2019-06-26T07:46:02.379Z,70.00
2019-06-26T07:48:31.780Z,69.60
2019-06-26T07:51:01.080Z,69.50
2019-06-26T07:53:30.377Z,69.20
2019-06-26T07:55:59.633Z,69.00
2019-06-26T07:58:28.881Z,68.70
2019-06-26T08:01:01.318Z,68.70
2019-06-26T08:03:30.543Z,68.90
2019-06-26T08:05:59.849Z,69.00
2019-06-26T08:08:29.096Z,68.60
2019-06-26T08:10:58.422Z,68.60
2019-06-26T08:13:27.641Z,68.60
2019-06-26T08:15:56.841Z,68.70
2019-06-26T08:18:26.079Z,68.70
2019-06-26T08:21:10.625Z,68.70
2019-06-26T08:23:26.323Z,68.50
2019-06-26T08:26:00.708Z,68.40
2019-06-26T08:28:30.043Z,68.10
2019-06-26T08:30:59.352Z,67.80
2019-06-26T08:33:28.667Z,67.70
2019-06-26T08:35:57.929Z,67.60
2019-06-26T08:38:27.362Z,67.30
2019-06-26T08:41:03.313Z,67.20
2019-06-26T08:43:32.609Z,65.20
2019-06-26T08:46:01.912Z,65.30
2019-06-26T08:48:39.815Z,65.30
2019-06-26T08:51:02.321Z,64.90
2019-06-26T08:53:31.709Z,64.50
2019-06-26T08:56:02.907Z,64.70
2019-06-26T08:58:32.177Z,64.60
2019-06-26T09:01:01.447Z,64.10
2019-06-26T09:03:30.731Z,64.10
2019-06-26T09:06:01.350Z,64.00
2019-06-26T09:08:30.738Z,63.50
2019-06-26T09:11:00.176Z,63.60
2019-06-26T09:13:29.573Z,63.40
2019-06-26T09:15:58.878Z,63.60
2019-06-26T09:18:35.394Z,63.20
2019-06-26T09:20:59.153Z,62.40
2019-06-26T09:23:31.110Z,61.70
2019-06-26T09:25:59.355Z,61.70
2019-06-26T09:28:28.654Z,61.70
2019-06-26T09:30:57.994Z,61.90
2019-06-26T09:33:27.235Z,62.10
2019-06-26T09:35:56.740Z,61.40
2019-06-26T09:38:25.972Z,61.40
2019-06-26T09:40:55.317Z,61.40
2019-06-26T09:43:27.323Z,61.60
2019-06-26T09:45:56.568Z,61.90
2019-06-26T09:48:26.056Z,61.90
2019-06-26T09:50:55.276Z,61.20
2019-06-26T09:53:24.528Z,60.80
2019-06-26T09:55:53.850Z,60.50
2019-06-26T09:58:23.482Z,60.10
2019-06-26T10:00:52.782Z,60.00
2019-06-26T10:03:22.127Z,59.70
2019-06-26T10:05:51.541Z,59.40
2019-06-26T10:08:20.751Z,58.90
2019-06-26T10:10:50.050Z,58.80
2019-06-26T10:13:19.466Z,58.70
2019-06-26T10:15:48.832Z,58.90
2019-06-26T10:18:19.601Z,59.20
2019-06-26T10:20:48.831Z,59.00
2019-06-26T10:23:18.071Z,59.10
2019-06-26T10:25:47.618Z,59.20
2019-06-26T10:28:16.869Z,59.20
2019-06-26T10:30:46.134Z,58.60
2019-06-26T10:33:15.840Z,59.30
2019-06-26T10:35:45.171Z,58.70
2019-06-26T10:38:14.614Z,58.60
2019-06-26T10:40:43.871Z,58.80
2019-06-26T10:43:13.100Z,58.60
2019-06-26T10:45:42.365Z,58.40
2019-06-26T10:48:11.749Z,58.40
2019-06-26T10:50:49.377Z,58.50
2019-06-26T10:53:11.884Z,58.50
2019-06-26T10:55:41.169Z,59.30
2019-06-26T10:58:10.572Z,58.50
2019-06-26T11:00:40.176Z,58.50
2019-06-26T11:03:09.416Z,58.40
2019-06-26T11:05:38.704Z,58.30
2019-06-26T11:08:07.909Z,58.50
2019-06-26T11:10:37.157Z,58.50
2019-06-26T11:13:06.933Z,58.20
2019-06-26T11:15:37.283Z,58.30
2019-06-26T11:18:06.557Z,58.00
2019-06-26T11:20:35.870Z,58.30
2019-06-26T11:23:05.217Z,58.60
2019-06-26T11:25:34.579Z,58.40
2019-06-26T11:28:03.999Z,58.40
2019-06-26T11:30:33.277Z,58.60
2019-06-26T11:33:02.627Z,58.20
2019-06-26T11:35:31.885Z,57.90
2019-06-26T11:38:01.127Z,57.70
2019-06-26T11:40:30.474Z,58.00
2019-06-26T11:42:59.846Z,58.10
2019-06-26T11:45:29.053Z,58.40
2019-06-26T11:47:58.406Z,58.60
2019-06-26T11:50:27.990Z,58.10
2019-06-26T11:52:57.311Z,58.20
2019-06-26T11:55:26.682Z,58.60
2019-06-26T11:57:56.219Z,58.60
2019-06-26T12:00:26.309Z,59.10
2019-06-26T12:02:55.585Z,59.40
2019-06-26T12:05:25.218Z,59.50
2019-06-26T12:07:54.756Z,59.80
2019-06-26T12:10:24.587Z,59.90
2019-06-26T12:12:53.967Z,60.10
2019-06-26T12:15:25.089Z,60.10
2019-06-26T12:17:54.421Z,59.80
2019-06-26T12:20:23.706Z,59.80
2019-06-26T12:22:53.214Z,59.80
2019-06-26T12:25:22.435Z,59.90
2019-06-26T12:27:51.780Z,59.80
2019-06-26T12:30:21.544Z,59.90
2019-06-26T12:33:02.169Z,59.90
2019-06-26T12:35:21.805Z,59.80
2019-06-26T12:37:51.169Z,59.70
2019-06-26T12:40:21.085Z,59.60
2019-06-26T12:42:50.343Z,59.70
2019-06-26T12:45:19.687Z,59.80
2019-06-26T12:47:48.975Z,59.80
2019-06-26T12:50:34.652Z,60.00
2019-06-26T12:52:53.593Z,59.20
2019-06-26T12:55:22.916Z,60.20
2019-06-26T12:57:52.298Z,59.60
2019-06-26T13:00:21.820Z,59.40
2019-06-26T13:02:51.193Z,59.50
2019-06-26T13:05:20.389Z,59.00
2019-06-26T13:07:50.787Z,58.90
2019-06-26T13:10:20.329Z,58.60
2019-06-26T13:12:49.626Z,58.00
2019-06-26T13:15:19.448Z,58.20
2019-06-26T13:17:48.726Z,58.30
2019-06-26T13:20:18.140Z,58.60
2019-06-26T13:22:47.493Z,58.60
2019-06-26T13:25:16.710Z,58.60
2019-06-26T13:27:46.292Z,58.40
2019-06-26T13:30:18.492Z,58.10
2019-06-26T13:32:48.070Z,57.60
2019-06-26T13:35:17.625Z,57.90
2019-06-26T13:37:46.867Z,57.90
2019-06-26T13:40:16.271Z,58.20
2019-06-26T13:42:45.545Z,58.00
2019-06-26T13:45:15.485Z,57.90
2019-06-26T13:47:44.768Z,57.90
2019-06-26T13:50:14.379Z,57.80
2019-06-26T13:52:43.692Z,58.00
2019-06-26T13:55:13.040Z,57.70
2019-06-26T13:57:42.328Z,57.30
2019-06-26T14:00:12.712Z,57.80
2019-06-26T14:02:42.095Z,56.70
2019-06-26T14:05:12.087Z,56.70
2019-06-26T14:07:41.843Z,56.60
2019-06-26T14:10:13.828Z,56.10
2019-06-26T14:12:43.266Z,55.80
2019-06-26T14:15:12.948Z,55.30
2019-06-26T14:17:42.216Z,55.10
2019-06-26T14:20:13.126Z,55.00
2019-06-26T14:22:42.366Z,54.60
2019-06-26T14:25:12.105Z,54.30
2019-06-26T14:27:41.549Z,53.90
2019-06-26T14:30:11.065Z,53.50
2019-06-26T14:32:40.326Z,53.10
2019-06-26T14:35:09.794Z,52.80
2019-06-26T14:37:39.038Z,51.90
2019-06-26T14:40:08.499Z,51.20
2019-06-26T14:42:37.884Z,50.80
2019-06-26T14:45:07.621Z,50.60
2019-06-26T14:47:36.844Z,50.60
2019-06-26T14:50:06.478Z,50.50
2019-06-26T14:52:35.861Z,50.50
2019-06-26T14:55:06.084Z,49.80
2019-06-26T14:57:35.387Z,49.40
2019-06-26T15:00:06.715Z,49.20
2019-06-26T15:02:36.160Z,48.70
2019-06-26T15:05:05.532Z,48.70
2019-06-26T15:07:34.911Z,48.30
2019-06-26T15:10:04.464Z,47.70
2019-06-26T15:12:33.802Z,47.70
2019-06-26T15:15:03.174Z,47.70
2019-06-26T15:17:32.488Z,47.10
2019-06-26T15:20:01.962Z,47.30
2019-06-26T15:22:31.325Z,47.40
2019-06-26T15:25:00.602Z,47.30
2019-06-26T15:27:29.801Z,47.00
2019-06-26T15:29:59.215Z,46.70
2019-06-26T15:32:28.486Z,46.60
2019-06-26T15:34:57.714Z,46.60
2019-06-26T15:37:26.947Z,46.70
2019-06-26T15:39:56.157Z,47.10
2019-06-26T15:42:25.376Z,47.40
2019-06-26T15:44:54.667Z,47.60
2019-06-26T15:47:23.981Z,47.60
2019-06-26T15:49:53.308Z,47.60
2019-06-26T15:52:22.656Z,47.30
2019-06-26T15:54:52.042Z,47.10
2019-06-26T15:57:21.284Z,47.20
2019-06-26T15:59:50.567Z,47.10
2019-06-26T16:02:19.789Z,47.30
2019-06-26T16:04:49.950Z,47.40
2019-06-26T16:07:19.235Z,47.40
2019-06-26T16:09:48.573Z,46.90
2019-06-26T16:12:17.785Z,46.70
2019-06-26T16:14:47.056Z,46.30
2019-06-26T16:17:22.723Z,46.30
2019-06-26T16:19:52.059Z,46.40
2019-06-26T16:22:31.547Z,46.50
2019-06-26T16:24:52.424Z,46.50
2019-06-26T16:27:21.827Z,46.30
2019-06-26T16:29:51.111Z,46.30
2019-06-26T16:32:20.521Z,46.30
2019-06-26T16:34:49.731Z,46.80
2019-06-26T16:37:19.045Z,46.80
2019-06-26T16:39:48.472Z,47.20
2019-06-26T16:42:17.787Z,47.20
2019-06-26T16:44:47.093Z,47.50
2019-06-26T16:47:16.604Z,47.50
2019-06-26T16:49:46.021Z,47.90
2019-06-26T16:52:15.386Z,48.20
2019-06-26T16:54:45.088Z,48.60
2019-06-26T16:57:14.368Z,48.60
2019-06-26T16:59:44.186Z,48.70
2019-06-26T17:02:13.551Z,49.10
2019-06-26T17:04:42.914Z,49.30
2019-06-26T17:07:12.126Z,49.40
2019-06-26T17:09:44.324Z,49.70
2019-06-26T17:12:12.340Z,49.80
2019-06-26T17:14:41.766Z,49.70
2019-06-26T17:17:11.045Z,50.00
2019-06-26T17:19:40.408Z,49.80
2019-06-26T17:22:09.662Z,49.70
2019-06-26T17:24:39.001Z,49.70
2019-06-26T17:27:08.256Z,49.60
2019-06-26T17:29:37.485Z,49.60
2019-06-26T17:32:06.876Z,49.70
2019-06-26T17:34:36.358Z,49.60
2019-06-26T17:37:05.680Z,49.40
2019-06-26T17:39:34.902Z,49.30
2019-06-26T17:42:04.155Z,49.60
2019-06-26T17:44:33.392Z,49.60
2019-06-26T17:47:05.366Z,49.60
2019-06-26T17:49:33.636Z,49.70
2019-06-26T17:52:03.018Z,50.00
2019-06-26T17:54:32.325Z,50.10
2019-06-26T17:57:01.744Z,50.30
2019-06-26T17:59:31.132Z,50.50
2019-06-26T18:02:00.455Z,50.70
2019-06-26T18:04:29.808Z,50.50
2019-06-26T18:06:59.197Z,50.60
2019-06-26T18:09:28.606Z,50.40
2019-06-26T18:11:58.220Z,50.50
2019-06-26T18:14:27.630Z,50.40
2019-06-26T18:16:57.373Z,50.60
2019-06-26T18:19:26.657Z,49.60
2019-06-26T18:21:55.942Z,49.40
2019-06-26T18:24:25.261Z,49.30
2019-06-26T18:26:55.748Z,50.20
2019-06-26T18:29:25.036Z,49.80
2019-06-26T18:31:54.339Z,50.00
2019-06-26T18:34:23.600Z,50.30
2019-06-26T18:36:52.943Z,50.40
2019-06-26T18:39:22.639Z,50.50
2019-06-26T18:41:51.973Z,50.40
2019-06-26T18:44:23.964Z,50.40
2019-06-26T18:46:53.378Z,50.30
2019-06-26T18:49:22.625Z,50.30
2019-06-26T18:51:51.919Z,50.30
2019-06-26T18:54:21.154Z,50.50
2019-06-26T18:56:50.514Z,51.00
2019-06-26T18:59:19.732Z,51.30
2019-06-26T19:01:50.030Z,51.60
2019-06-26T19:04:19.684Z,52.00
2019-06-26T19:06:49.299Z,52.30
2019-06-26T19:09:18.668Z,52.60
2019-06-26T19:11:47.979Z,53.00
2019-06-26T19:14:17.261Z,53.00
2019-06-26T19:16:46.769Z,53.20
2019-06-26T19:19:16.532Z,53.40
2019-06-26T19:21:45.933Z,53.60
2019-06-26T19:24:15.252Z,54.10
2019-06-26T19:26:44.550Z,54.20
2019-06-26T19:29:13.802Z,54.50
2019-06-26T19:31:43.005Z,54.80
2019-06-26T19:34:12.316Z,55.70
2019-06-26T19:36:49.965Z,55.40
2019-06-26T19:39:12.648Z,55.60
2019-06-26T19:41:42.258Z,56.10
2019-06-26T19:44:11.675Z,56.50
2019-06-26T19:46:42.097Z,56.60
2019-06-26T19:49:11.959Z,56.80
2019-06-26T19:51:41.327Z,57.10
2019-06-26T19:54:25.965Z,57.30
2019-06-26T19:56:41.735Z,57.30
2019-06-26T19:59:11.284Z,57.60
2019-06-26T20:01:40.983Z,57.60
2019-06-26T20:04:10.312Z,58.10
2019-06-26T20:06:39.677Z,58.20
2019-06-26T20:09:08.958Z,58.40
2019-06-26T20:11:38.376Z,58.40
2019-06-26T20:14:07.692Z,58.70
2019-06-26T20:16:37.428Z,59.10
2019-06-26T20:19:06.780Z,59.10
2019-06-26T20:21:36.096Z,59.20
2019-06-26T20:24:08.089Z,60.30
2019-06-26T20:26:37.444Z,59.80
2019-06-26T20:29:07.398Z,60.00
2019-06-26T20:31:37.273Z,60.10
2019-06-26T20:34:06.730Z,60.50
2019-06-26T20:36:36.165Z,61.00
2019-06-26T20:39:06.202Z,61.40
2019-06-26T20:41:35.511Z,61.70
2019-06-26T20:44:04.844Z,61.80
2019-06-26T20:46:34.166Z,62.00
2019-06-26T20:49:03.391Z,63.30
2019-06-26T20:51:32.705Z,62.80
2019-06-26T20:54:02.183Z,62.80
2019-06-26T20:56:31.876Z,62.70
2019-06-26T20:59:01.229Z,62.70
2019-06-26T21:01:30.866Z,62.90
2019-06-26T21:04:00.184Z,62.80
2019-06-26T21:06:29.493Z,62.90
2019-06-26T21:08:58.752Z,62.90
2019-06-26T21:11:28.206Z,63.00
2019-06-26T21:13:57.414Z,63.10
2019-06-26T21:16:26.670Z,63.40
2019-06-26T21:18:55.930Z,63.40
2019-06-26T21:21:25.215Z,63.60
2019-06-26T21:23:54.480Z,63.70
2019-06-26T21:26:23.772Z,64.00
2019-06-26T21:28:53.238Z,64.20
2019-06-26T21:31:22.529Z,64.30
2019-06-26T21:33:51.820Z,64.40
2019-06-26T21:36:21.152Z,64.50
2019-06-26T21:38:50.462Z,65.40
2019-06-26T21:41:19.704Z,64.60
2019-06-26T21:43:48.983Z,64.60
2019-06-26T21:46:18.211Z,64.80
2019-06-26T21:48:47.429Z,64.80
2019-06-26T21:51:16.803Z,64.90
2019-06-26T21:53:46.132Z,65.00
2019-06-26T21:56:15.435Z,65.10
2019-06-26T21:58:47.512Z,65.20
2019-06-26T22:01:17.218Z,65.40
2019-06-26T22:03:46.493Z,65.50
2019-06-26T22:06:15.715Z,65.60
2019-06-26T22:08:45.058Z,65.80
2019-06-26T22:11:14.327Z,65.80
2019-06-26T22:13:43.627Z,65.90
2019-06-26T22:16:12.983Z,65.80
2019-06-26T22:18:42.209Z,66.70
2019-06-26T22:21:11.460Z,66.10
2019-06-26T22:23:40.856Z,66.20
2019-06-26T22:26:13.771Z,66.10
2019-06-26T22:28:44.187Z,66.30
2019-06-26T22:31:16.387Z,66.30
2019-06-26T22:33:45.831Z,66.40
2019-06-26T22:36:15.094Z,66.50
2019-06-26T22:38:44.335Z,66.60
2019-06-26T22:41:13.557Z,66.90
2019-06-26T22:43:42.794Z,66.80
2019-06-26T22:46:12.054Z,67.40
2019-06-26T22:48:41.288Z,67.00
2019-06-26T22:51:10.668Z,67.00
2019-06-26T22:53:39.942Z,67.10
2019-06-26T22:56:09.567Z,67.20
2019-06-26T22:58:38.844Z,67.20
2019-06-26T23:01:08.029Z,67.20
2019-06-26T23:03:37.272Z,67.20
2019-06-26T23:06:06.496Z,67.20
2019-06-26T23:08:35.794Z,67.10
2019-06-26T23:11:05.134Z,67.20
2019-06-26T23:13:34.334Z,67.30
2019-06-26T23:16:03.550Z,67.40
2019-06-26T23:18:32.799Z,67.50
2019-06-26T23:21:02.214Z,67.60
2019-06-26T23:23:31.488Z,67.40
2019-06-26T23:26:00.745Z,67.40
2019-06-26T23:28:30.059Z,67.20
2019-06-26T23:30:59.295Z,67.20
2019-06-26T23:33:28.897Z,67.10
2019-06-26T23:35:58.205Z,67.30
2019-06-26T23:38:27.423Z,67.40
2019-06-26T23:40:56.644Z,67.50
2019-06-26T23:43:25.928Z,67.40
2019-06-26T23:45:55.240Z,67.30
2019-06-26T23:48:24.558Z,66.90
2019-06-26T23:50:53.865Z,67.00
2019-06-26T23:53:23.061Z,67.00
2019-06-26T23:55:52.262Z,67.00
2019-06-26T23:58:21.591Z,67.00
